Terminal Aerodrome Forecast
Issued by NWS

Home | Current Version | Previous Version | Text Only | Print | Product List | Glossary On
Versions: 1 2 3 4 5 6 7 8 9 10 11 12 13 14 15 16 17 18 19 20 21 22
000
FTAK31 PAJN 051331 AAA
TAFAYA
TAF AMD
PAYA 051331Z 0514/0612 24007KT 6SM BR OVC003
      TEMPO 0514/0516 1/2SM FG
     FM051600 00000KT P6SM SCT005 OVC015
     FM051900 13005KT P6SM OVC030
     FM060400 14005KT P6SM VCSH OVC035
     FM061000 12005KT P6SM -RA OVC020=

USA.gov is the U.S. government's official web portal to all federal, state and local government web resources and services.